N930DX SADF-SCEL
Flight info
| Callsign | N930DX |
|---|---|
| Flight time | 2h 33m |
| Altitude | 29000 |
| Route | N0309F280 DCT NIN UL405 TOSOR UT687 UMKAL UMKA7C |
| Aircraft | TBM9/L-SDGRY/LB1 |
Departure
| Time | 2026-05-05 13:00 |
|---|---|
| Airport | San Fernando Airport (SADF) |
Arrival
| Time | 2026-05-05 15:33 |
|---|---|
| Airport | Comodoro Arturo Merino Benítez International Airport (SCEL) |
| Time | Latitude | Longitude | Altitude | Speed | Heading |
|---|---|---|---|---|---|
| 2026-05-05 12:50 | -34.45523 | -58.58314 | 18 ft | 0 kts | 66° |
| 2026-05-05 12:55 | -34.45523 | -58.58313 | 18 ft | 2 kts | 65° |
| 2026-05-05 12:55 | -34.45478 | -58.58241 | 17 ft | 10 kts | 0° |
| 2026-05-05 12:55 | -34.45464 | -58.58289 | 17 ft | 10 kts | 240° |
| 2026-05-05 12:56 | -34.45500 | -58.58373 | 19 ft | 12 kts | 242° |
| 2026-05-05 12:56 | -34.45545 | -58.58475 | 20 ft | 17 kts | 243° |
| 2026-05-05 12:56 | -34.45608 | -58.58625 | 22 ft | 23 kts | 242° |
| 2026-05-05 12:56 | -34.45682 | -58.58798 | 25 ft | 23 kts | 242° |
| 2026-05-05 12:57 | -34.45755 | -58.58969 | 27 ft | 23 kts | 243° |
| 2026-05-05 12:57 | -34.45827 | -58.59138 | 29 ft | 22 kts | 242° |
| 2026-05-05 12:57 | -34.45898 | -58.59300 | 32 ft | 22 kts | 242° |
| 2026-05-05 12:57 | -34.45967 | -58.59461 | 34 ft | 21 kts | 243° |
| 2026-05-05 12:58 | -34.46029 | -58.59612 | 36 ft | 18 kts | 259° |
| 2026-05-05 12:58 | -34.45955 | -58.59675 | 37 ft | 9 kts | 34° |
| 2026-05-05 12:58 | -34.45945 | -58.59664 | 37 ft | 0 kts | 44° |
| 2026-05-05 12:59 | -34.45913 | -58.59628 | 36 ft | 28 kts | 44° |
| 2026-05-05 12:59 | -34.45608 | -58.59269 | 28 ft | 93 kts | 44° |
| 2026-05-05 13:00 | -34.44404 | -58.57873 | 701 ft | 135 kts | 43° |
| 2026-05-05 13:00 | -34.43936 | -58.57326 | 997 ft | 143 kts | 43° |
| 2026-05-05 13:01 | -34.41427 | -58.54959 | 2321 ft | 167 kts | 357° |
| 2026-05-05 13:01 | -34.40372 | -58.55520 | 2751 ft | 172 kts | 313° |
| 2026-05-05 13:01 | -34.39930 | -58.56857 | 3191 ft | 177 kts | 271° |
| 2026-05-05 13:01 | -34.40251 | -58.58308 | 3636 ft | 182 kts | 251° |
| 2026-05-05 13:02 | -34.40743 | -58.59728 | 4094 ft | 185 kts | 251° |
| 2026-05-05 13:02 | -34.41274 | -58.61168 | 4550 ft | 190 kts | 251° |
| 2026-05-05 13:02 | -34.41833 | -58.62609 | 4994 ft | 191 kts | 251° |
| 2026-05-05 13:02 | -34.42419 | -58.64062 | 5440 ft | 191 kts | 250° |
| 2026-05-05 13:03 | -34.43005 | -58.65505 | 5891 ft | 192 kts | 251° |
| 2026-05-05 13:03 | -34.43602 | -58.66965 | 6345 ft | 193 kts | 250° |
| 2026-05-05 13:03 | -34.44020 | -58.68467 | 6769 ft | 186 kts | 270° |
| 2026-05-05 13:03 | -34.44056 | -58.70025 | 7195 ft | 185 kts | 274° |
| 2026-05-05 13:04 | -34.44112 | -58.71579 | 7610 ft | 186 kts | 271° |
| 2026-05-05 13:04 | -34.44198 | -58.73139 | 8041 ft | 186 kts | 271° |
| 2026-05-05 13:04 | -34.44285 | -58.74713 | 8481 ft | 186 kts | 271° |
| 2026-05-05 13:04 | -34.44369 | -58.76281 | 8916 ft | 187 kts | 271° |
| 2026-05-05 13:05 | -34.44454 | -58.77861 | 9344 ft | 189 kts | 271° |
| 2026-05-05 13:05 | -34.44539 | -58.79455 | 9775 ft | 191 kts | 271° |
| 2026-05-05 13:05 | -34.44625 | -58.81062 | 10174 ft | 193 kts | 271° |
| 2026-05-05 13:05 | -34.44711 | -58.82698 | 10571 ft | 194 kts | 271° |
| 2026-05-05 13:06 | -34.44799 | -58.84337 | 10967 ft | 195 kts | 270° |
| 2026-05-05 13:06 | -34.44885 | -58.85969 | 11351 ft | 196 kts | 271° |
| 2026-05-05 13:06 | -34.44972 | -58.87626 | 11712 ft | 199 kts | 270° |
| 2026-05-05 13:06 | -34.45061 | -58.89319 | 12079 ft | 200 kts | 270° |
| 2026-05-05 13:07 | -34.45150 | -58.91010 | 12449 ft | 202 kts | 270° |
| 2026-05-05 13:07 | -34.45239 | -58.92697 | 12817 ft | 203 kts | 270° |
| 2026-05-05 13:07 | -34.45328 | -58.94403 | 13194 ft | 204 kts | 270° |
| 2026-05-05 13:07 | -34.45417 | -58.96117 | 13580 ft | 204 kts | 270° |
| 2026-05-05 13:08 | -34.45507 | -58.97831 | 13945 ft | 204 kts | 270° |
| 2026-05-05 13:08 | -34.45597 | -58.99567 | 14293 ft | 204 kts | 270° |
| 2026-05-05 13:08 | -34.45685 | -59.01275 | 14635 ft | 205 kts | 270° |
| 2026-05-05 13:08 | -34.45774 | -59.02991 | 14984 ft | 205 kts | 270° |
| 2026-05-05 13:09 | -34.45863 | -59.04727 | 15344 ft | 205 kts | 270° |
| 2026-05-05 13:09 | -34.45950 | -59.06451 | 15709 ft | 206 kts | 270° |
| 2026-05-05 13:09 | -34.46039 | -59.08172 | 16100 ft | 205 kts | 270° |
| 2026-05-05 13:09 | -34.46128 | -59.09889 | 16492 ft | 204 kts | 270° |
| 2026-05-05 13:10 | -34.46215 | -59.11608 | 16891 ft | 204 kts | 270° |
| 2026-05-05 13:10 | -34.46302 | -59.13312 | 17296 ft | 203 kts | 269° |
| 2026-05-05 13:10 | -34.46388 | -59.15027 | 17706 ft | 203 kts | 269° |
| 2026-05-05 13:10 | -34.46474 | -59.16722 | 18123 ft | 202 kts | 269° |
| 2026-05-05 13:11 | -34.46560 | -59.18412 | 18503 ft | 201 kts | 269° |
| 2026-05-05 13:11 | -34.46644 | -59.20102 | 18866 ft | 201 kts | 269° |
| 2026-05-05 13:11 | -34.46729 | -59.21789 | 19238 ft | 201 kts | 269° |
| 2026-05-05 13:11 | -34.46814 | -59.23493 | 19616 ft | 201 kts | 269° |
| 2026-05-05 13:12 | -34.46898 | -59.25175 | 19996 ft | 200 kts | 269° |
| 2026-05-05 13:12 | -34.46981 | -59.26852 | 20379 ft | 200 kts | 269° |
| 2026-05-05 13:12 | -34.47065 | -59.28529 | 20763 ft | 200 kts | 269° |
| 2026-05-05 13:12 | -34.47149 | -59.30251 | 21062 ft | 204 kts | 269° |
| 2026-05-05 13:13 | -34.47233 | -59.31975 | 21365 ft | 207 kts | 269° |
| 2026-05-05 13:13 | -34.47319 | -59.33725 | 21666 ft | 210 kts | 269° |
| 2026-05-05 13:13 | -34.47405 | -59.35492 | 21973 ft | 211 kts | 269° |
| 2026-05-05 13:13 | -34.47493 | -59.37288 | 22290 ft | 213 kts | 269° |
| 2026-05-05 13:14 | -34.47580 | -59.39077 | 22605 ft | 214 kts | 269° |
| 2026-05-05 13:14 | -34.47668 | -59.40884 | 22922 ft | 215 kts | 269° |
| 2026-05-05 13:14 | -34.47756 | -59.42696 | 23243 ft | 216 kts | 269° |
| 2026-05-05 13:14 | -34.47843 | -59.44513 | 23561 ft | 217 kts | 269° |
| 2026-05-05 13:15 | -34.47931 | -59.46353 | 23835 ft | 218 kts | 269° |
| 2026-05-05 13:15 | -34.48020 | -59.48196 | 24106 ft | 218 kts | 269° |
| 2026-05-05 13:15 | -34.48108 | -59.50033 | 24381 ft | 219 kts | 269° |
| 2026-05-05 13:15 | -34.48195 | -59.51880 | 24658 ft | 219 kts | 269° |
| 2026-05-05 13:16 | -34.48283 | -59.53715 | 24936 ft | 219 kts | 269° |
| 2026-05-05 13:16 | -34.48370 | -59.55558 | 25218 ft | 220 kts | 269° |
| 2026-05-05 13:16 | -34.48457 | -59.57407 | 25466 ft | 221 kts | 269° |
| 2026-05-05 13:16 | -34.48544 | -59.59272 | 25705 ft | 223 kts | 269° |
| 2026-05-05 13:17 | -34.48634 | -59.61179 | 25951 ft | 225 kts | 269° |
| 2026-05-05 13:17 | -34.48722 | -59.63064 | 26195 ft | 226 kts | 269° |
| 2026-05-05 13:17 | -34.48810 | -59.64956 | 26439 ft | 227 kts | 269° |
| 2026-05-05 13:17 | -34.48899 | -59.66883 | 26691 ft | 227 kts | 269° |
| 2026-05-05 13:18 | -34.48987 | -59.68785 | 26943 ft | 228 kts | 269° |
| 2026-05-05 13:18 | -34.49075 | -59.70705 | 27195 ft | 228 kts | 269° |
| 2026-05-05 13:18 | -34.49164 | -59.72627 | 27450 ft | 229 kts | 269° |
| 2026-05-05 13:18 | -34.49251 | -59.74544 | 27706 ft | 229 kts | 269° |
| 2026-05-05 13:19 | -34.49340 | -59.76494 | 27962 ft | 230 kts | 268° |
| 2026-05-05 13:19 | -34.49428 | -59.78461 | 27985 ft | 238 kts | 269° |
| 2026-05-05 13:19 | -34.49517 | -59.80478 | 27991 ft | 245 kts | 269° |
| 2026-05-05 13:19 | -34.49611 | -59.82559 | 27996 ft | 250 kts | 269° |
| 2026-05-05 13:20 | -34.49707 | -59.84678 | 27996 ft | 254 kts | 269° |
| 2026-05-05 13:20 | -34.49802 | -59.86818 | 27996 ft | 257 kts | 269° |
| 2026-05-05 13:20 | -34.49899 | -59.89010 | 27995 ft | 259 kts | 269° |
| 2026-05-05 13:20 | -34.49996 | -59.91185 | 27993 ft | 261 kts | 269° |
| 2026-05-05 13:21 | -34.50094 | -59.93406 | 27994 ft | 262 kts | 269° |
| 2026-05-05 13:21 | -34.50191 | -59.95603 | 27993 ft | 262 kts | 269° |
| 2026-05-05 13:21 | -34.50288 | -59.97806 | 27993 ft | 262 kts | 269° |
| 2026-05-05 13:21 | -34.50384 | -60.00020 | 27989 ft | 263 kts | 269° |
| 2026-05-05 13:22 | -34.50480 | -60.02220 | 27986 ft | 263 kts | 269° |
| 2026-05-05 13:22 | -34.50577 | -60.04440 | 27989 ft | 263 kts | 269° |
| 2026-05-05 13:22 | -34.50672 | -60.06656 | 27988 ft | 263 kts | 269° |
| 2026-05-05 13:22 | -34.50767 | -60.08869 | 27986 ft | 263 kts | 269° |
| 2026-05-05 13:23 | -34.50862 | -60.11092 | 27986 ft | 263 kts | 269° |
| 2026-05-05 13:23 | -34.50956 | -60.13303 | 27982 ft | 263 kts | 269° |
| 2026-05-05 13:23 | -34.51050 | -60.15511 | 27979 ft | 263 kts | 269° |
| 2026-05-05 13:23 | -34.51144 | -60.17745 | 27979 ft | 263 kts | 269° |
| 2026-05-05 13:24 | -34.51237 | -60.19949 | 27978 ft | 263 kts | 269° |
| 2026-05-05 13:24 | -34.51330 | -60.22187 | 27978 ft | 263 kts | 269° |
| 2026-05-05 13:24 | -34.51422 | -60.24405 | 27974 ft | 263 kts | 269° |
| 2026-05-05 13:24 | -34.51514 | -60.26603 | 27977 ft | 263 kts | 269° |
| 2026-05-05 13:25 | -34.51606 | -60.28841 | 27978 ft | 263 kts | 269° |
| 2026-05-05 13:25 | -34.51697 | -60.31064 | 27978 ft | 263 kts | 269° |
| 2026-05-05 13:25 | -34.51788 | -60.33260 | 27974 ft | 263 kts | 269° |
| 2026-05-05 13:25 | -34.51878 | -60.35470 | 27979 ft | 263 kts | 269° |
| 2026-05-05 13:26 | -34.51967 | -60.37690 | 27978 ft | 263 kts | 269° |
| 2026-05-05 13:26 | -34.52058 | -60.39932 | 27973 ft | 263 kts | 269° |
| 2026-05-05 13:26 | -34.52147 | -60.42143 | 27973 ft | 263 kts | 269° |
| 2026-05-05 13:26 | -34.52236 | -60.44352 | 27974 ft | 263 kts | 269° |
| 2026-05-05 13:27 | -34.52324 | -60.46563 | 27977 ft | 263 kts | 269° |
| 2026-05-05 13:27 | -34.52412 | -60.48799 | 27976 ft | 263 kts | 269° |
| 2026-05-05 13:27 | -34.52500 | -60.51015 | 27976 ft | 263 kts | 269° |
| 2026-05-05 13:27 | -34.52587 | -60.53225 | 27975 ft | 263 kts | 269° |
| 2026-05-05 13:28 | -34.52674 | -60.55459 | 27975 ft | 263 kts | 269° |
| 2026-05-05 13:28 | -34.52760 | -60.57661 | 27979 ft | 264 kts | 269° |
| 2026-05-05 13:28 | -34.52847 | -60.59896 | 27976 ft | 264 kts | 269° |
| 2026-05-05 13:28 | -34.52932 | -60.62114 | 27976 ft | 264 kts | 269° |
| 2026-05-05 13:29 | -34.53017 | -60.64322 | 27979 ft | 264 kts | 269° |
| 2026-05-05 13:29 | -34.53103 | -60.66556 | 27979 ft | 264 kts | 269° |
| 2026-05-05 13:29 | -34.53187 | -60.68765 | 27974 ft | 264 kts | 269° |
| 2026-05-05 13:29 | -34.53271 | -60.71004 | 27976 ft | 264 kts | 269° |
| 2026-05-05 13:30 | -34.53355 | -60.73217 | 27975 ft | 264 kts | 269° |
| 2026-05-05 13:30 | -34.53438 | -60.75433 | 27980 ft | 264 kts | 269° |
| 2026-05-05 13:30 | -34.53521 | -60.77655 | 27976 ft | 264 kts | 269° |
| 2026-05-05 13:30 | -34.53603 | -60.79870 | 27979 ft | 264 kts | 269° |
| 2026-05-05 13:31 | -34.53686 | -60.82118 | 27980 ft | 264 kts | 269° |
| 2026-05-05 13:31 | -34.53767 | -60.84326 | 27980 ft | 264 kts | 269° |
| 2026-05-05 13:31 | -34.53849 | -60.86565 | 27979 ft | 264 kts | 269° |
| 2026-05-05 13:31 | -34.53931 | -60.88792 | 27981 ft | 264 kts | 269° |
| 2026-05-05 13:32 | -34.54011 | -60.91005 | 27977 ft | 264 kts | 269° |
| 2026-05-05 13:32 | -34.54007 | -60.93227 | 27985 ft | 264 kts | 275° |
| 2026-05-05 13:32 | -34.53781 | -60.95451 | 27993 ft | 264 kts | 280° |
| 2026-05-05 13:32 | -34.53435 | -60.97623 | 27993 ft | 264 kts | 280° |
| 2026-05-05 13:33 | -34.53107 | -60.99807 | 27991 ft | 264 kts | 280° |
| 2026-05-05 13:33 | -34.52773 | -61.02010 | 27989 ft | 264 kts | 280° |
| 2026-05-05 13:33 | -34.52434 | -61.04197 | 27988 ft | 264 kts | 280° |
| 2026-05-05 13:33 | -34.52096 | -61.06373 | 27985 ft | 264 kts | 280° |
| 2026-05-05 13:34 | -34.51757 | -61.08572 | 27986 ft | 264 kts | 280° |
| 2026-05-05 13:34 | -34.51419 | -61.10756 | 27988 ft | 264 kts | 280° |
| 2026-05-05 13:34 | -34.51076 | -61.12968 | 27984 ft | 264 kts | 281° |
| 2026-05-05 13:34 | -34.50737 | -61.15153 | 27984 ft | 264 kts | 280° |
| 2026-05-05 13:35 | -34.50398 | -61.17335 | 27979 ft | 264 kts | 280° |
| 2026-05-05 13:35 | -34.50059 | -61.19512 | 27976 ft | 264 kts | 281° |
| 2026-05-05 13:35 | -34.49715 | -61.21721 | 27975 ft | 264 kts | 281° |
| 2026-05-05 13:35 | -34.49375 | -61.23902 | 27979 ft | 264 kts | 281° |
| 2026-05-05 13:36 | -34.49035 | -61.26081 | 27978 ft | 264 kts | 281° |
| 2026-05-05 13:36 | -34.48691 | -61.28279 | 27976 ft | 264 kts | 281° |
| 2026-05-05 13:36 | -34.48351 | -61.30454 | 27974 ft | 264 kts | 281° |
| 2026-05-05 13:36 | -34.48005 | -61.32661 | 27977 ft | 264 kts | 281° |
| 2026-05-05 13:37 | -34.47664 | -61.34835 | 27974 ft | 264 kts | 281° |
| 2026-05-05 13:37 | -34.47319 | -61.37035 | 27977 ft | 264 kts | 281° |
| 2026-05-05 13:37 | -34.46976 | -61.39211 | 27978 ft | 264 kts | 281° |
| 2026-05-05 13:37 | -34.46633 | -61.41387 | 27975 ft | 264 kts | 281° |
| 2026-05-05 13:38 | -34.46290 | -61.43565 | 27973 ft | 264 kts | 281° |
| 2026-05-05 13:38 | -34.45941 | -61.45775 | 27973 ft | 264 kts | 281° |
| 2026-05-05 13:38 | -34.45598 | -61.47949 | 27972 ft | 264 kts | 281° |
| 2026-05-05 13:38 | -34.45254 | -61.50120 | 27978 ft | 264 kts | 281° |
| 2026-05-05 13:39 | -34.44905 | -61.52325 | 27972 ft | 264 kts | 281° |
| 2026-05-05 13:39 | -34.44559 | -61.54505 | 27975 ft | 264 kts | 281° |
| 2026-05-05 13:39 | -34.44213 | -61.56678 | 27973 ft | 264 kts | 281° |
| 2026-05-05 13:39 | -34.43863 | -61.58860 | 27974 ft | 264 kts | 281° |
| 2026-05-05 13:40 | -34.43510 | -61.61063 | 27974 ft | 264 kts | 281° |
| 2026-05-05 13:40 | -34.43163 | -61.63227 | 27975 ft | 264 kts | 281° |
| 2026-05-05 13:40 | -34.42811 | -61.65423 | 27977 ft | 264 kts | 281° |
| 2026-05-05 13:40 | -34.42460 | -61.67608 | 27977 ft | 264 kts | 281° |
| 2026-05-05 13:41 | -34.42110 | -61.69782 | 27973 ft | 264 kts | 281° |
| 2026-05-05 13:41 | -34.41760 | -61.71955 | 27978 ft | 264 kts | 281° |
| 2026-05-05 13:41 | -34.41406 | -61.74153 | 27974 ft | 264 kts | 281° |
| 2026-05-05 13:41 | -34.41055 | -61.76326 | 27973 ft | 264 kts | 281° |
| 2026-05-05 13:42 | -34.40703 | -61.78506 | 27972 ft | 264 kts | 281° |
| 2026-05-05 13:42 | -34.40466 | -61.79968 | 27972 ft | 264 kts | 281° |
| 2026-05-05 13:42 | -34.40115 | -61.82138 | 27974 ft | 264 kts | 281° |
| 2026-05-05 13:42 | -34.39759 | -61.84331 | 27973 ft | 264 kts | 281° |
| 2026-05-05 13:43 | -34.39406 | -61.86505 | 27972 ft | 264 kts | 281° |
| 2026-05-05 13:43 | -34.39048 | -61.88709 | 27970 ft | 264 kts | 281° |
| 2026-05-05 13:43 | -34.38693 | -61.90890 | 27971 ft | 264 kts | 281° |
| 2026-05-05 13:43 | -34.38337 | -61.93074 | 27970 ft | 264 kts | 281° |
| 2026-05-05 13:44 | -34.37985 | -61.95239 | 27971 ft | 264 kts | 281° |
| 2026-05-05 13:44 | -34.37624 | -61.97443 | 27971 ft | 265 kts | 281° |
| 2026-05-05 13:44 | -34.37270 | -61.99612 | 27972 ft | 265 kts | 281° |
| 2026-05-05 13:44 | -34.36914 | -62.01788 | 27970 ft | 265 kts | 281° |
| 2026-05-05 13:45 | -34.36553 | -62.03987 | 27971 ft | 265 kts | 281° |
| 2026-05-05 13:45 | -34.36197 | -62.06156 | 27970 ft | 265 kts | 281° |
| 2026-05-05 13:45 | -34.35836 | -62.08359 | 27970 ft | 265 kts | 281° |
| 2026-05-05 13:45 | -34.35478 | -62.10530 | 27969 ft | 265 kts | 281° |
| 2026-05-05 13:46 | -34.35117 | -62.12726 | 27973 ft | 265 kts | 281° |
| 2026-05-05 13:46 | -34.34758 | -62.14901 | 27971 ft | 265 kts | 281° |
| 2026-05-05 13:46 | -34.34399 | -62.17081 | 27971 ft | 265 kts | 281° |
| 2026-05-05 13:46 | -34.34035 | -62.19282 | 27970 ft | 265 kts | 281° |
| 2026-05-05 13:47 | -34.33675 | -62.21457 | 27973 ft | 265 kts | 281° |
| 2026-05-05 13:47 | -34.33310 | -62.23661 | 27970 ft | 265 kts | 281° |
| 2026-05-05 13:47 | -34.32949 | -62.25835 | 27973 ft | 265 kts | 281° |
| 2026-05-05 13:47 | -34.32589 | -62.28008 | 27968 ft | 265 kts | 281° |
| 2026-05-05 13:48 | -34.32224 | -62.30204 | 27972 ft | 265 kts | 281° |
| 2026-05-05 13:48 | -34.31861 | -62.32383 | 27969 ft | 265 kts | 281° |
| 2026-05-05 13:48 | -34.31495 | -62.34583 | 27970 ft | 265 kts | 281° |
| 2026-05-05 13:48 | -34.31132 | -62.36759 | 27971 ft | 265 kts | 281° |
| 2026-05-05 13:49 | -34.30767 | -62.38943 | 27975 ft | 265 kts | 281° |
| 2026-05-05 13:49 | -34.30400 | -62.41141 | 27972 ft | 265 kts | 281° |
| 2026-05-05 13:49 | -34.30035 | -62.43321 | 27971 ft | 265 kts | 281° |
| 2026-05-05 13:49 | -34.29669 | -62.45506 | 27971 ft | 265 kts | 281° |
| 2026-05-05 13:50 | -34.29303 | -62.47684 | 27971 ft | 266 kts | 281° |
| 2026-05-05 13:50 | -34.28935 | -62.49878 | 27973 ft | 266 kts | 281° |
| 2026-05-05 13:50 | -34.28569 | -62.52057 | 27969 ft | 266 kts | 281° |
| 2026-05-05 13:50 | -34.28201 | -62.54243 | 27969 ft | 266 kts | 281° |
| 2026-05-05 13:51 | -34.27827 | -62.56460 | 27969 ft | 266 kts | 281° |
| 2026-05-05 13:51 | -34.27460 | -62.58635 | 27970 ft | 266 kts | 281° |
| 2026-05-05 13:51 | -34.27090 | -62.60827 | 27969 ft | 266 kts | 281° |
| 2026-05-05 13:51 | -34.26722 | -62.63007 | 27968 ft | 266 kts | 281° |
| 2026-05-05 13:52 | -34.26347 | -62.65218 | 27970 ft | 266 kts | 281° |
| 2026-05-05 13:52 | -34.25978 | -62.67395 | 27970 ft | 266 kts | 281° |
| 2026-05-05 13:52 | -34.25604 | -62.69602 | 27968 ft | 266 kts | 281° |
| 2026-05-05 13:52 | -34.25235 | -62.71776 | 27968 ft | 266 kts | 281° |
| 2026-05-05 13:53 | -34.24864 | -62.73954 | 27967 ft | 266 kts | 282° |
| 2026-05-05 13:53 | -34.24488 | -62.76164 | 27967 ft | 266 kts | 282° |
| 2026-05-05 13:53 | -34.24116 | -62.78345 | 27967 ft | 266 kts | 282° |
| 2026-05-05 13:53 | -34.23742 | -62.80540 | 27966 ft | 266 kts | 282° |
| 2026-05-05 13:54 | -34.23369 | -62.82724 | 27966 ft | 266 kts | 282° |
| 2026-05-05 13:54 | -34.22993 | -62.84915 | 27966 ft | 266 kts | 282° |
| 2026-05-05 13:54 | -34.22648 | -62.86931 | 27968 ft | 266 kts | 282° |
| 2026-05-05 13:54 | -34.22271 | -62.89134 | 27966 ft | 266 kts | 282° |
| 2026-05-05 13:55 | -34.21896 | -62.91318 | 27972 ft | 266 kts | 282° |
| 2026-05-05 13:55 | -34.21521 | -62.93502 | 27971 ft | 266 kts | 282° |
| 2026-05-05 13:55 | -34.21145 | -62.95688 | 27966 ft | 266 kts | 282° |
| 2026-05-05 13:55 | -34.20765 | -62.97892 | 27970 ft | 266 kts | 282° |
| 2026-05-05 13:56 | -34.20391 | -63.00065 | 27967 ft | 266 kts | 282° |
| 2026-05-05 13:56 | -34.20011 | -63.02268 | 27967 ft | 266 kts | 282° |
| 2026-05-05 13:56 | -34.19633 | -63.04454 | 27968 ft | 266 kts | 282° |
| 2026-05-05 13:56 | -34.19252 | -63.06657 | 27969 ft | 266 kts | 282° |
| 2026-05-05 13:57 | -34.18876 | -63.08828 | 27965 ft | 266 kts | 282° |
| 2026-05-05 13:57 | -34.18494 | -63.11033 | 27966 ft | 266 kts | 282° |
| 2026-05-05 13:57 | -34.18117 | -63.13209 | 27963 ft | 267 kts | 282° |
| 2026-05-05 13:57 | -34.17734 | -63.15411 | 27967 ft | 266 kts | 282° |
| 2026-05-05 13:58 | -34.17357 | -63.17579 | 27966 ft | 267 kts | 282° |
| 2026-05-05 13:58 | -34.16974 | -63.19781 | 27968 ft | 266 kts | 282° |
| 2026-05-05 13:58 | -34.16590 | -63.21985 | 27967 ft | 267 kts | 282° |
| 2026-05-05 13:58 | -34.16210 | -63.24163 | 27968 ft | 266 kts | 282° |
| 2026-05-05 13:59 | -34.15446 | -63.28534 | 27964 ft | 267 kts | 282° |
| 2026-05-05 13:59 | -34.15060 | -63.30737 | 27965 ft | 267 kts | 282° |
| 2026-05-05 14:00 | -34.14293 | -63.35111 | 27963 ft | 267 kts | 282° |
| 2026-05-05 14:00 | -34.13892 | -63.37279 | 27969 ft | 267 kts | 283° |
| 2026-05-05 14:00 | -34.13457 | -63.39479 | 27965 ft | 267 kts | 283° |
| 2026-05-05 14:00 | -34.13030 | -63.41647 | 27962 ft | 267 kts | 283° |
| 2026-05-05 14:01 | -34.12604 | -63.43826 | 27966 ft | 267 kts | 283° |
| 2026-05-05 14:01 | -34.12175 | -63.46012 | 27964 ft | 267 kts | 283° |
| 2026-05-05 14:01 | -34.11747 | -63.48187 | 27963 ft | 267 kts | 283° |
| 2026-05-05 14:01 | -34.11319 | -63.50359 | 27966 ft | 267 kts | 283° |
| 2026-05-05 14:02 | -34.10885 | -63.52563 | 27965 ft | 267 kts | 283° |
| 2026-05-05 14:02 | -34.10455 | -63.54741 | 27968 ft | 267 kts | 283° |
| 2026-05-05 14:02 | -34.10026 | -63.56914 | 27966 ft | 267 kts | 283° |
| 2026-05-05 14:02 | -34.09594 | -63.59098 | 27966 ft | 267 kts | 283° |
| 2026-05-05 14:03 | -34.09162 | -63.61278 | 27963 ft | 267 kts | 283° |
| 2026-05-05 14:03 | -34.08728 | -63.63472 | 27965 ft | 267 kts | 283° |
| 2026-05-05 14:03 | -34.08295 | -63.65653 | 27966 ft | 268 kts | 283° |
| 2026-05-05 14:03 | -34.07864 | -63.67826 | 27966 ft | 268 kts | 283° |
| 2026-05-05 14:04 | -34.07430 | -63.70006 | 27968 ft | 267 kts | 283° |
| 2026-05-05 14:04 | -34.06993 | -63.72205 | 27964 ft | 268 kts | 283° |
| 2026-05-05 14:04 | -34.06560 | -63.74378 | 27966 ft | 268 kts | 283° |
| 2026-05-05 14:04 | -34.06127 | -63.76553 | 27966 ft | 268 kts | 283° |
| 2026-05-05 14:05 | -34.05692 | -63.78734 | 27970 ft | 268 kts | 283° |
| 2026-05-05 14:05 | -34.05256 | -63.80914 | 27969 ft | 268 kts | 283° |
| 2026-05-05 14:05 | -34.04820 | -63.83097 | 27969 ft | 268 kts | 283° |
| 2026-05-05 14:05 | -34.04378 | -63.85304 | 27964 ft | 268 kts | 283° |
| 2026-05-05 14:06 | -34.03942 | -63.87483 | 27966 ft | 268 kts | 283° |
| 2026-05-05 14:06 | -34.03505 | -63.89674 | 27966 ft | 268 kts | 283° |
| 2026-05-05 14:06 | -34.03071 | -63.91848 | 27968 ft | 268 kts | 283° |
| 2026-05-05 14:06 | -34.02636 | -63.94024 | 27964 ft | 268 kts | 283° |
| 2026-05-05 14:07 | -34.02199 | -63.96208 | 27963 ft | 268 kts | 283° |
| 2026-05-05 14:07 | -34.01758 | -63.98410 | 27964 ft | 268 kts | 283° |
| 2026-05-05 14:07 | -34.01321 | -64.00590 | 27967 ft | 268 kts | 283° |
| 2026-05-05 14:07 | -34.00885 | -64.02761 | 27966 ft | 268 kts | 283° |
| 2026-05-05 14:08 | -34.00446 | -64.04944 | 27961 ft | 268 kts | 283° |
| 2026-05-05 14:08 | -34.00002 | -64.07154 | 27964 ft | 268 kts | 283° |
| 2026-05-05 14:08 | -33.99564 | -64.09330 | 27964 ft | 268 kts | 283° |
| 2026-05-05 14:08 | -33.99127 | -64.11500 | 27964 ft | 268 kts | 283° |
| 2026-05-05 14:09 | -33.98687 | -64.13683 | 27964 ft | 268 kts | 283° |
| 2026-05-05 14:09 | -33.98243 | -64.15881 | 27962 ft | 268 kts | 283° |
| 2026-05-05 14:09 | -33.97800 | -64.18073 | 27961 ft | 268 kts | 283° |
| 2026-05-05 14:09 | -33.97359 | -64.20253 | 27963 ft | 268 kts | 283° |
| 2026-05-05 14:10 | -33.96918 | -64.22429 | 27961 ft | 268 kts | 283° |
| 2026-05-05 14:10 | -33.96478 | -64.24601 | 27962 ft | 268 kts | 283° |
| 2026-05-05 14:10 | -33.96034 | -64.26787 | 27960 ft | 268 kts | 283° |
| 2026-05-05 14:10 | -33.95590 | -64.28973 | 27963 ft | 268 kts | 283° |
| 2026-05-05 14:11 | -33.95148 | -64.31149 | 27957 ft | 268 kts | 283° |
| 2026-05-05 14:11 | -33.94701 | -64.33346 | 27963 ft | 269 kts | 283° |
| 2026-05-05 14:11 | -33.94257 | -64.35525 | 27960 ft | 269 kts | 283° |
| 2026-05-05 14:11 | -33.93813 | -64.37704 | 27957 ft | 269 kts | 283° |
| 2026-05-05 14:12 | -33.93362 | -64.39915 | 27960 ft | 269 kts | 283° |
| 2026-05-05 14:12 | -33.92921 | -64.42072 | 27956 ft | 269 kts | 283° |
| 2026-05-05 14:12 | -33.92474 | -64.44259 | 27956 ft | 269 kts | 283° |
| 2026-05-05 14:12 | -33.92024 | -64.46455 | 27958 ft | 269 kts | 283° |
| 2026-05-05 14:13 | -33.91576 | -64.48640 | 27955 ft | 269 kts | 283° |
| 2026-05-05 14:13 | -33.91134 | -64.50833 | 27959 ft | 269 kts | 282° |
| 2026-05-05 14:13 | -33.90782 | -64.53031 | 27957 ft | 269 kts | 281° |
| 2026-05-05 14:13 | -33.90421 | -64.55247 | 27958 ft | 269 kts | 281° |
| 2026-05-05 14:14 | -33.90056 | -64.57451 | 27958 ft | 269 kts | 281° |
| 2026-05-05 14:14 | -33.89694 | -64.59656 | 27956 ft | 269 kts | 281° |
| 2026-05-05 14:14 | -33.89333 | -64.61862 | 27956 ft | 269 kts | 281° |
| 2026-05-05 14:14 | -33.88966 | -64.64098 | 27960 ft | 269 kts | 281° |
| 2026-05-05 14:15 | -33.88607 | -64.66279 | 27957 ft | 269 kts | 281° |
| 2026-05-05 14:15 | -33.88241 | -64.68507 | 27958 ft | 269 kts | 281° |
| 2026-05-05 14:15 | -33.87877 | -64.70718 | 27960 ft | 269 kts | 281° |
| 2026-05-05 14:15 | -33.87513 | -64.72925 | 27956 ft | 270 kts | 281° |
| 2026-05-05 14:16 | -33.87147 | -64.75139 | 27959 ft | 270 kts | 281° |
| 2026-05-05 14:16 | -33.86783 | -64.77340 | 27956 ft | 270 kts | 281° |
| 2026-05-05 14:16 | -33.86416 | -64.79558 | 27956 ft | 270 kts | 281° |
| 2026-05-05 14:16 | -33.86050 | -64.81767 | 27956 ft | 270 kts | 281° |
| 2026-05-05 14:17 | -33.85682 | -64.83981 | 27951 ft | 270 kts | 281° |
| 2026-05-05 14:17 | -33.85316 | -64.86186 | 27953 ft | 270 kts | 281° |
| 2026-05-05 14:17 | -33.84945 | -64.88422 | 27955 ft | 270 kts | 281° |
| 2026-05-05 14:17 | -33.84577 | -64.90631 | 27955 ft | 270 kts | 281° |
| 2026-05-05 14:18 | -33.84207 | -64.92850 | 27963 ft | 270 kts | 281° |
| 2026-05-05 14:18 | -33.83837 | -64.95065 | 27956 ft | 270 kts | 281° |
| 2026-05-05 14:18 | -33.83468 | -64.97273 | 27952 ft | 270 kts | 281° |
| 2026-05-05 14:18 | -33.83098 | -64.99491 | 27960 ft | 270 kts | 281° |
| 2026-05-05 14:19 | -33.82726 | -65.01707 | 27957 ft | 270 kts | 281° |
| 2026-05-05 14:19 | -33.82354 | -65.03932 | 27963 ft | 270 kts | 281° |
| 2026-05-05 14:19 | -33.81983 | -65.06140 | 27964 ft | 270 kts | 281° |
| 2026-05-05 14:19 | -33.81612 | -65.08347 | 27963 ft | 270 kts | 281° |
| 2026-05-05 14:20 | -33.81241 | -65.10556 | 27967 ft | 270 kts | 281° |
| 2026-05-05 14:20 | -33.80868 | -65.12768 | 27967 ft | 270 kts | 281° |
| 2026-05-05 14:20 | -33.80491 | -65.15005 | 27974 ft | 270 kts | 281° |
| 2026-05-05 14:20 | -33.80118 | -65.17212 | 27974 ft | 270 kts | 281° |
| 2026-05-05 14:21 | -33.79746 | -65.19416 | 27973 ft | 270 kts | 281° |
| 2026-05-05 14:21 | -33.79373 | -65.21618 | 27979 ft | 270 kts | 281° |
| 2026-05-05 14:21 | -33.78998 | -65.23832 | 27979 ft | 270 kts | 281° |
| 2026-05-05 14:21 | -33.78620 | -65.26066 | 27982 ft | 270 kts | 281° |
| 2026-05-05 14:22 | -33.78245 | -65.28270 | 27982 ft | 270 kts | 281° |
| 2026-05-05 14:22 | -33.77872 | -65.30466 | 27983 ft | 270 kts | 281° |
| 2026-05-05 14:22 | -33.77491 | -65.32705 | 27986 ft | 270 kts | 281° |
| 2026-05-05 14:22 | -33.77118 | -65.34895 | 27985 ft | 271 kts | 281° |
| 2026-05-05 14:23 | -33.76741 | -65.37108 | 27984 ft | 270 kts | 281° |
| 2026-05-05 14:23 | -33.76359 | -65.39344 | 27987 ft | 271 kts | 281° |
| 2026-05-05 14:23 | -33.75982 | -65.41546 | 27984 ft | 270 kts | 281° |
| 2026-05-05 14:23 | -33.75601 | -65.43775 | 27983 ft | 271 kts | 281° |
| 2026-05-05 14:24 | -33.75222 | -65.45985 | 27984 ft | 271 kts | 281° |
| 2026-05-05 14:24 | -33.74843 | -65.48194 | 27981 ft | 271 kts | 281° |
| 2026-05-05 14:24 | -33.74464 | -65.50406 | 27983 ft | 271 kts | 281° |
| 2026-05-05 14:24 | -33.74084 | -65.52615 | 27980 ft | 271 kts | 281° |
| 2026-05-05 14:25 | -33.73705 | -65.54817 | 27979 ft | 271 kts | 282° |
| 2026-05-05 14:25 | -33.73323 | -65.57034 | 27977 ft | 271 kts | 282° |
| 2026-05-05 14:25 | -33.72942 | -65.59243 | 27976 ft | 271 kts | 282° |
| 2026-05-05 14:25 | -33.72684 | -65.60733 | 27973 ft | 271 kts | 282° |
| 2026-05-05 14:26 | -33.72304 | -65.62934 | 27968 ft | 271 kts | 282° |
| 2026-05-05 14:26 | -33.71920 | -65.65155 | 27967 ft | 271 kts | 282° |
| 2026-05-05 14:26 | -33.71536 | -65.67371 | 27967 ft | 271 kts | 282° |
| 2026-05-05 14:26 | -33.71153 | -65.69581 | 27963 ft | 271 kts | 282° |
| 2026-05-05 14:27 | -33.70766 | -65.71809 | 27962 ft | 271 kts | 282° |
| 2026-05-05 14:27 | -33.70384 | -65.74011 | 27960 ft | 271 kts | 282° |
| 2026-05-05 14:27 | -33.70001 | -65.76210 | 27959 ft | 271 kts | 282° |
| 2026-05-05 14:27 | -33.69611 | -65.78450 | 27953 ft | 271 kts | 282° |
| 2026-05-05 14:28 | -33.69226 | -65.80657 | 27955 ft | 271 kts | 282° |
| 2026-05-05 14:28 | -33.68840 | -65.82870 | 27950 ft | 271 kts | 282° |
| 2026-05-05 14:28 | -33.68453 | -65.85084 | 27946 ft | 271 kts | 282° |
| 2026-05-05 14:28 | -33.68066 | -65.87295 | 27950 ft | 271 kts | 282° |
| 2026-05-05 14:29 | -33.67681 | -65.89496 | 27949 ft | 271 kts | 282° |
| 2026-05-05 14:29 | -33.67290 | -65.91727 | 27949 ft | 271 kts | 282° |
| 2026-05-05 14:29 | -33.66902 | -65.93939 | 27947 ft | 271 kts | 282° |
| 2026-05-05 14:29 | -33.66514 | -65.96146 | 27949 ft | 271 kts | 282° |
| 2026-05-05 14:30 | -33.66126 | -65.98348 | 27951 ft | 271 kts | 282° |
| 2026-05-05 14:30 | -33.65732 | -66.00586 | 27944 ft | 271 kts | 282° |
| 2026-05-05 14:30 | -33.65345 | -66.02786 | 27946 ft | 271 kts | 282° |
| 2026-05-05 14:30 | -33.64955 | -66.04994 | 27947 ft | 271 kts | 282° |
| 2026-05-05 14:31 | -33.64560 | -66.07232 | 27945 ft | 271 kts | 282° |
| 2026-05-05 14:31 | -33.64170 | -66.09434 | 27944 ft | 272 kts | 282° |
| 2026-05-05 14:31 | -33.63779 | -66.11641 | 27942 ft | 272 kts | 282° |
| 2026-05-05 14:31 | -33.63381 | -66.13888 | 27942 ft | 272 kts | 282° |
| 2026-05-05 14:32 | -33.62988 | -66.16103 | 27942 ft | 272 kts | 282° |
| 2026-05-05 14:32 | -33.62596 | -66.18308 | 27941 ft | 272 kts | 282° |
| 2026-05-05 14:32 | -33.62202 | -66.20524 | 27942 ft | 272 kts | 282° |
| 2026-05-05 14:32 | -33.61804 | -66.22755 | 27939 ft | 272 kts | 282° |
| 2026-05-05 14:33 | -33.61412 | -66.24957 | 27945 ft | 272 kts | 282° |
| 2026-05-05 14:33 | -33.61013 | -66.27192 | 27943 ft | 272 kts | 282° |
| 2026-05-05 14:33 | -33.60614 | -66.29424 | 27944 ft | 273 kts | 282° |
| 2026-05-05 14:33 | -33.60219 | -66.31635 | 27943 ft | 273 kts | 282° |
| 2026-05-05 14:34 | -33.59819 | -66.33871 | 27945 ft | 273 kts | 282° |
| 2026-05-05 14:34 | -33.59422 | -66.36084 | 27941 ft | 273 kts | 282° |
| 2026-05-05 14:34 | -33.59019 | -66.38330 | 27945 ft | 273 kts | 282° |
| 2026-05-05 14:34 | -33.58619 | -66.40557 | 27943 ft | 273 kts | 282° |
| 2026-05-05 14:35 | -33.58221 | -66.42772 | 27943 ft | 274 kts | 282° |
| 2026-05-05 14:35 | -33.57821 | -66.44993 | 27944 ft | 274 kts | 282° |
| 2026-05-05 14:35 | -33.57416 | -66.47240 | 27944 ft | 274 kts | 282° |
| 2026-05-05 14:35 | -33.57015 | -66.49463 | 27943 ft | 274 kts | 282° |
| 2026-05-05 14:36 | -33.56610 | -66.51708 | 27943 ft | 274 kts | 282° |
| 2026-05-05 14:36 | -33.56209 | -66.53924 | 27939 ft | 274 kts | 282° |
| 2026-05-05 14:36 | -33.55802 | -66.56173 | 27940 ft | 274 kts | 282° |
| 2026-05-05 14:36 | -33.55396 | -66.58412 | 27939 ft | 274 kts | 282° |
| 2026-05-05 14:37 | -33.54992 | -66.60639 | 27939 ft | 274 kts | 282° |
| 2026-05-05 14:37 | -33.54585 | -66.62882 | 27936 ft | 274 kts | 282° |
| 2026-05-05 14:37 | -33.54182 | -66.65102 | 27934 ft | 274 kts | 282° |
| 2026-05-05 14:37 | -33.53773 | -66.67349 | 27937 ft | 274 kts | 282° |
| 2026-05-05 14:38 | -33.53368 | -66.69569 | 27936 ft | 274 kts | 283° |
| 2026-05-05 14:38 | -33.52958 | -66.71820 | 27939 ft | 275 kts | 283° |
| 2026-05-05 14:38 | -33.52555 | -66.74028 | 27938 ft | 275 kts | 283° |
| 2026-05-05 14:38 | -33.52143 | -66.76282 | 27939 ft | 275 kts | 283° |
| 2026-05-05 14:39 | -33.51736 | -66.78507 | 27936 ft | 275 kts | 283° |
| 2026-05-05 14:39 | -33.51325 | -66.80751 | 27938 ft | 275 kts | 283° |
| 2026-05-05 14:39 | -33.50918 | -66.82970 | 27938 ft | 275 kts | 283° |
| 2026-05-05 14:39 | -33.50506 | -66.85214 | 27936 ft | 275 kts | 283° |
| 2026-05-05 14:40 | -33.50097 | -66.87445 | 27937 ft | 275 kts | 283° |
| 2026-05-05 14:40 | -33.49685 | -66.89683 | 27940 ft | 275 kts | 283° |
| 2026-05-05 14:40 | -33.49271 | -66.91930 | 27938 ft | 275 kts | 283° |
| 2026-05-05 14:40 | -33.48858 | -66.94172 | 27939 ft | 276 kts | 283° |
| 2026-05-05 14:41 | -33.48443 | -66.96420 | 27934 ft | 276 kts | 283° |
| 2026-05-05 14:41 | -33.48032 | -66.98645 | 27938 ft | 276 kts | 283° |
| 2026-05-05 14:41 | -33.47618 | -67.00888 | 27935 ft | 276 kts | 283° |
| 2026-05-05 14:41 | -33.47200 | -67.03144 | 27939 ft | 276 kts | 283° |
| 2026-05-05 14:42 | -33.46786 | -67.05375 | 27936 ft | 276 kts | 283° |
| 2026-05-05 14:42 | -33.46365 | -67.07647 | 27937 ft | 276 kts | 283° |
| 2026-05-05 14:42 | -33.45951 | -67.09874 | 27936 ft | 277 kts | 283° |
| 2026-05-05 14:42 | -33.45531 | -67.12135 | 27942 ft | 277 kts | 283° |
| 2026-05-05 14:43 | -33.45117 | -67.14360 | 27939 ft | 277 kts | 283° |
| 2026-05-05 14:43 | -33.44694 | -67.16625 | 27936 ft | 277 kts | 283° |
| 2026-05-05 14:43 | -33.44278 | -67.18856 | 27938 ft | 277 kts | 283° |
| 2026-05-05 14:43 | -33.43857 | -67.21113 | 27936 ft | 277 kts | 283° |
| 2026-05-05 14:44 | -33.43440 | -67.23348 | 27941 ft | 277 kts | 283° |
| 2026-05-05 14:44 | -33.43016 | -67.25612 | 27941 ft | 277 kts | 283° |
| 2026-05-05 14:44 | -33.42596 | -67.27852 | 27944 ft | 277 kts | 283° |
| 2026-05-05 14:44 | -33.42177 | -67.30089 | 27939 ft | 277 kts | 283° |
| 2026-05-05 14:45 | -33.41756 | -67.32329 | 27938 ft | 277 kts | 283° |
| 2026-05-05 14:45 | -33.41330 | -67.34597 | 27938 ft | 277 kts | 283° |
| 2026-05-05 14:45 | -33.40910 | -67.36829 | 27943 ft | 277 kts | 283° |
| 2026-05-05 14:45 | -33.40484 | -67.39091 | 27945 ft | 277 kts | 283° |
| 2026-05-05 14:46 | -33.40065 | -67.41314 | 27943 ft | 277 kts | 283° |
| 2026-05-05 14:46 | -33.39641 | -67.43564 | 27944 ft | 277 kts | 283° |
| 2026-05-05 14:46 | -33.39216 | -67.45810 | 27944 ft | 277 kts | 283° |
| 2026-05-05 14:46 | -33.38791 | -67.48058 | 27945 ft | 277 kts | 283° |
| 2026-05-05 14:47 | -33.38360 | -67.50334 | 27943 ft | 277 kts | 283° |
| 2026-05-05 14:47 | -33.37937 | -67.52568 | 27943 ft | 277 kts | 283° |
| 2026-05-05 14:47 | -33.37511 | -67.54812 | 27947 ft | 277 kts | 283° |
| 2026-05-05 14:47 | -33.37085 | -67.57058 | 27946 ft | 277 kts | 283° |
| 2026-05-05 14:48 | -33.36658 | -67.59308 | 27946 ft | 277 kts | 283° |
| 2026-05-05 14:48 | -33.36229 | -67.61559 | 27946 ft | 277 kts | 283° |
| 2026-05-05 14:48 | -33.35799 | -67.63814 | 27948 ft | 277 kts | 283° |
| 2026-05-05 14:48 | -33.35372 | -67.66054 | 27945 ft | 278 kts | 283° |
| 2026-05-05 14:49 | -33.34940 | -67.68320 | 27947 ft | 278 kts | 283° |
| 2026-05-05 14:49 | -33.34513 | -67.70553 | 27946 ft | 278 kts | 283° |
| 2026-05-05 14:49 | -33.34083 | -67.72804 | 27944 ft | 278 kts | 283° |
| 2026-05-05 14:49 | -33.33651 | -67.75060 | 27944 ft | 278 kts | 283° |
| 2026-05-05 14:50 | -33.33218 | -67.77317 | 27949 ft | 278 kts | 283° |
| 2026-05-05 14:50 | -33.32784 | -67.79581 | 27949 ft | 278 kts | 283° |
| 2026-05-05 14:50 | -33.32353 | -67.81824 | 27947 ft | 278 kts | 283° |
| 2026-05-05 14:50 | -33.31921 | -67.84075 | 27947 ft | 278 kts | 283° |
| 2026-05-05 14:51 | -33.31489 | -67.86324 | 27945 ft | 278 kts | 283° |
| 2026-05-05 14:51 | -33.31054 | -67.88582 | 27946 ft | 278 kts | 283° |
| 2026-05-05 14:51 | -33.30621 | -67.90828 | 27946 ft | 278 kts | 283° |
| 2026-05-05 14:51 | -33.30181 | -67.93108 | 27946 ft | 278 kts | 283° |
| 2026-05-05 14:52 | -33.29748 | -67.95349 | 27948 ft | 278 kts | 283° |
| 2026-05-05 14:52 | -33.29312 | -67.97606 | 27948 ft | 278 kts | 283° |
| 2026-05-05 14:52 | -33.28875 | -67.99866 | 27948 ft | 278 kts | 283° |
| 2026-05-05 14:52 | -33.28438 | -68.02123 | 27947 ft | 278 kts | 283° |
| 2026-05-05 14:53 | -33.28005 | -68.04353 | 27947 ft | 278 kts | 283° |
| 2026-05-05 14:53 | -33.27569 | -68.06601 | 27944 ft | 278 kts | 283° |
| 2026-05-05 14:53 | -33.27131 | -68.08852 | 27950 ft | 278 kts | 283° |
| 2026-05-05 14:53 | -33.26692 | -68.11113 | 27949 ft | 279 kts | 283° |
| 2026-05-05 14:54 | -33.26251 | -68.13377 | 27945 ft | 279 kts | 283° |
| 2026-05-05 14:54 | -33.25812 | -68.15629 | 27947 ft | 279 kts | 283° |
| 2026-05-05 14:54 | -33.25373 | -68.17880 | 27946 ft | 279 kts | 283° |
| 2026-05-05 14:54 | -33.24931 | -68.20144 | 27948 ft | 279 kts | 283° |
| 2026-05-05 14:55 | -33.24490 | -68.22401 | 27947 ft | 279 kts | 283° |
| 2026-05-05 14:55 | -33.24047 | -68.24660 | 27945 ft | 279 kts | 283° |
| 2026-05-05 14:55 | -33.23607 | -68.26902 | 27943 ft | 279 kts | 283° |
| 2026-05-05 14:55 | -33.23166 | -68.29154 | 27946 ft | 279 kts | 283° |
| 2026-05-05 14:56 | -33.22722 | -68.31419 | 27951 ft | 279 kts | 283° |
| 2026-05-05 14:56 | -33.22279 | -68.33671 | 27948 ft | 279 kts | 284° |
| 2026-05-05 14:56 | -33.21834 | -68.35933 | 27950 ft | 279 kts | 284° |
| 2026-05-05 14:56 | -33.21392 | -68.38181 | 27949 ft | 279 kts | 284° |
| 2026-05-05 14:57 | -33.20946 | -68.40442 | 27950 ft | 279 kts | 284° |
| 2026-05-05 14:57 | -33.20498 | -68.42711 | 27960 ft | 279 kts | 284° |
| 2026-05-05 14:57 | -33.20053 | -68.44962 | 27948 ft | 280 kts | 284° |
| 2026-05-05 14:57 | -33.19605 | -68.47230 | 27955 ft | 280 kts | 284° |
| 2026-05-05 14:58 | -33.19155 | -68.49506 | 27949 ft | 280 kts | 284° |
| 2026-05-05 14:58 | -33.18708 | -68.51759 | 27948 ft | 280 kts | 284° |
| 2026-05-05 14:58 | -33.18261 | -68.54015 | 27951 ft | 280 kts | 284° |
| 2026-05-05 14:58 | -33.17813 | -68.56272 | 27947 ft | 280 kts | 284° |
| 2026-05-05 14:59 | -33.17365 | -68.58527 | 27953 ft | 280 kts | 284° |
| 2026-05-05 14:59 | -33.16916 | -68.60781 | 27950 ft | 280 kts | 284° |
| 2026-05-05 14:59 | -33.16464 | -68.63051 | 27954 ft | 280 kts | 284° |
| 2026-05-05 14:59 | -33.16015 | -68.65298 | 27953 ft | 280 kts | 284° |
| 2026-05-05 15:00 | -33.15563 | -68.67561 | 27951 ft | 280 kts | 284° |
| 2026-05-05 15:00 | -33.15262 | -68.69073 | 27951 ft | 280 kts | 284° |
| 2026-05-05 15:00 | -33.14663 | -68.72064 | 27951 ft | 279 kts | 284° |
| 2026-05-05 15:00 | -33.14210 | -68.74323 | 27953 ft | 279 kts | 284° |
| 2026-05-05 15:01 | -33.13754 | -68.76594 | 27952 ft | 279 kts | 284° |
| 2026-05-05 15:01 | -33.13303 | -68.78847 | 27952 ft | 279 kts | 284° |
| 2026-05-05 15:01 | -33.12852 | -68.81091 | 27955 ft | 279 kts | 284° |
| 2026-05-05 15:01 | -33.12399 | -68.83342 | 27957 ft | 279 kts | 284° |
| 2026-05-05 15:02 | -33.11946 | -68.85588 | 27956 ft | 280 kts | 284° |
| 2026-05-05 15:02 | -33.11489 | -68.87860 | 27955 ft | 280 kts | 284° |
| 2026-05-05 15:02 | -33.11033 | -68.90118 | 27957 ft | 280 kts | 284° |
| 2026-05-05 15:02 | -33.10578 | -68.92370 | 27956 ft | 280 kts | 284° |
| 2026-05-05 15:03 | -33.10123 | -68.94622 | 27959 ft | 279 kts | 284° |
| 2026-05-05 15:03 | -33.09668 | -68.96876 | 27960 ft | 279 kts | 284° |
| 2026-05-05 15:03 | -33.09212 | -68.99125 | 27958 ft | 279 kts | 284° |
| 2026-05-05 15:03 | -33.08756 | -69.01375 | 27957 ft | 279 kts | 284° |
| 2026-05-05 15:04 | -33.08301 | -69.03613 | 27966 ft | 279 kts | 284° |
| 2026-05-05 15:04 | -33.07844 | -69.05862 | 27965 ft | 279 kts | 284° |
| 2026-05-05 15:04 | -33.07382 | -69.08135 | 27963 ft | 279 kts | 284° |
| 2026-05-05 15:04 | -33.06931 | -69.10358 | 27977 ft | 277 kts | 284° |
| 2026-05-05 15:05 | -33.06021 | -69.14817 | 27988 ft | 278 kts | 284° |
| 2026-05-05 15:05 | -33.05562 | -69.17067 | 27988 ft | 279 kts | 284° |
| 2026-05-05 15:05 | -33.05102 | -69.19314 | 27991 ft | 278 kts | 284° |
| 2026-05-05 15:06 | -33.04648 | -69.21537 | 27997 ft | 278 kts | 284° |
| 2026-05-05 15:06 | -33.04189 | -69.23778 | 28002 ft | 278 kts | 284° |
| 2026-05-05 15:06 | -33.03728 | -69.26030 | 28007 ft | 279 kts | 284° |
| 2026-05-05 15:06 | -33.03418 | -69.27536 | 28011 ft | 279 kts | 284° |
| 2026-05-05 15:07 | -33.02960 | -69.29762 | 28018 ft | 279 kts | 284° |
| 2026-05-05 15:07 | -33.02499 | -69.32005 | 28029 ft | 279 kts | 284° |
| 2026-05-05 15:07 | -33.02039 | -69.34247 | 28025 ft | 278 kts | 284° |
| 2026-05-05 15:07 | -33.01576 | -69.36501 | 28043 ft | 277 kts | 284° |
| 2026-05-05 15:08 | -33.01123 | -69.38696 | 28054 ft | 276 kts | 284° |
| 2026-05-05 15:08 | -33.00664 | -69.40921 | 28057 ft | 275 kts | 284° |
| 2026-05-05 15:08 | -33.00204 | -69.43151 | 28069 ft | 273 kts | 284° |
| 2026-05-05 15:08 | -32.99751 | -69.45344 | 28089 ft | 273 kts | 284° |
| 2026-05-05 15:09 | -32.99293 | -69.47551 | 28086 ft | 275 kts | 284° |
| 2026-05-05 15:09 | -32.98837 | -69.49752 | 28092 ft | 275 kts | 284° |
| 2026-05-05 15:09 | -32.98379 | -69.51959 | 28099 ft | 273 kts | 284° |
| 2026-05-05 15:09 | -32.97926 | -69.54145 | 28104 ft | 270 kts | 284° |
| 2026-05-05 15:10 | -32.97476 | -69.56321 | 28117 ft | 272 kts | 284° |
| 2026-05-05 15:10 | -32.97020 | -69.58512 | 28104 ft | 272 kts | 284° |
| 2026-05-05 15:10 | -32.96568 | -69.60675 | 28133 ft | 269 kts | 284° |
| 2026-05-05 15:10 | -32.96122 | -69.62819 | 28127 ft | 268 kts | 284° |
| 2026-05-05 15:11 | -32.95674 | -69.64978 | 28151 ft | 268 kts | 284° |
| 2026-05-05 15:11 | -32.95220 | -69.67156 | 28160 ft | 268 kts | 284° |
| 2026-05-05 15:11 | -32.94772 | -69.69296 | 28168 ft | 268 kts | 284° |
| 2026-05-05 15:11 | -32.94323 | -69.71445 | 28180 ft | 269 kts | 284° |
| 2026-05-05 15:12 | -32.93868 | -69.73618 | 28179 ft | 271 kts | 284° |
| 2026-05-05 15:12 | -32.93409 | -69.75804 | 28084 ft | 276 kts | 284° |
| 2026-05-05 15:12 | -32.92941 | -69.78024 | 27752 ft | 276 kts | 284° |
| 2026-05-05 15:12 | -32.92478 | -69.80235 | 27392 ft | 275 kts | 284° |
| 2026-05-05 15:13 | -32.92016 | -69.82436 | 27031 ft | 276 kts | 284° |
| 2026-05-05 15:13 | -32.91546 | -69.84677 | 26673 ft | 276 kts | 284° |
| 2026-05-05 15:13 | -32.91082 | -69.86874 | 26314 ft | 277 kts | 284° |
| 2026-05-05 15:13 | -32.90612 | -69.89099 | 25956 ft | 277 kts | 284° |
| 2026-05-05 15:14 | -32.90143 | -69.91325 | 25580 ft | 276 kts | 285° |
| 2026-05-05 15:14 | -32.89673 | -69.93542 | 25216 ft | 277 kts | 284° |
| 2026-05-05 15:14 | -32.89201 | -69.95786 | 24853 ft | 278 kts | 285° |
| 2026-05-05 15:14 | -32.88730 | -69.98012 | 24482 ft | 279 kts | 285° |
| 2026-05-05 15:15 | -32.88297 | -70.00257 | 24111 ft | 280 kts | 282° |
| 2026-05-05 15:15 | -32.88081 | -70.02552 | 23690 ft | 281 kts | 278° |
| 2026-05-05 15:15 | -32.87871 | -70.04893 | 23238 ft | 282 kts | 279° |
| 2026-05-05 15:15 | -32.87646 | -70.07216 | 22819 ft | 285 kts | 279° |
| 2026-05-05 15:16 | -32.87433 | -70.09549 | 22423 ft | 286 kts | 279° |
| 2026-05-05 15:16 | -32.87219 | -70.11906 | 21991 ft | 287 kts | 279° |
| 2026-05-05 15:16 | -32.86997 | -70.14310 | 21569 ft | 290 kts | 279° |
| 2026-05-05 15:16 | -32.86775 | -70.16699 | 21142 ft | 291 kts | 279° |
| 2026-05-05 15:17 | -32.86551 | -70.19086 | 20713 ft | 293 kts | 279° |
| 2026-05-05 15:17 | -32.86335 | -70.21506 | 20280 ft | 294 kts | 279° |
| 2026-05-05 15:17 | -32.86108 | -70.23940 | 19848 ft | 298 kts | 279° |
| 2026-05-05 15:17 | -32.85873 | -70.26375 | 19412 ft | 297 kts | 280° |
| 2026-05-05 15:18 | -32.85647 | -70.28812 | 18976 ft | 291 kts | 279° |
| 2026-05-05 15:18 | -32.85437 | -70.31200 | 18547 ft | 291 kts | 279° |
| 2026-05-05 15:18 | -32.85217 | -70.33572 | 18091 ft | 291 kts | 279° |
| 2026-05-05 15:18 | -32.84985 | -70.35988 | 17674 ft | 291 kts | 280° |
| 2026-05-05 15:19 | -32.84757 | -70.38372 | 17238 ft | 291 kts | 280° |
| 2026-05-05 15:19 | -32.84541 | -70.40763 | 16757 ft | 291 kts | 280° |
| 2026-05-05 15:19 | -32.84320 | -70.43144 | 16350 ft | 291 kts | 280° |
| 2026-05-05 15:19 | -32.84093 | -70.45532 | 15939 ft | 291 kts | 280° |
| 2026-05-05 15:20 | -32.83868 | -70.47924 | 15494 ft | 291 kts | 280° |
| 2026-05-05 15:20 | -32.83641 | -70.50332 | 15102 ft | 292 kts | 280° |
| 2026-05-05 15:20 | -32.83416 | -70.52718 | 14732 ft | 292 kts | 280° |
| 2026-05-05 15:20 | -32.83189 | -70.55134 | 14346 ft | 292 kts | 281° |
| 2026-05-05 15:21 | -32.82964 | -70.57521 | 13975 ft | 292 kts | 281° |
| 2026-05-05 15:21 | -32.82735 | -70.59924 | 13577 ft | 292 kts | 281° |
| 2026-05-05 15:21 | -32.82506 | -70.62317 | 13176 ft | 291 kts | 281° |
| 2026-05-05 15:21 | -32.82286 | -70.64699 | 12783 ft | 291 kts | 278° |
| 2026-05-05 15:22 | -32.82381 | -70.67113 | 12387 ft | 296 kts | 265° |
| 2026-05-05 15:22 | -32.82905 | -70.69513 | 11977 ft | 300 kts | 254° |
| 2026-05-05 15:22 | -32.83839 | -70.71737 | 11590 ft | 304 kts | 243° |
| 2026-05-05 15:22 | -32.85163 | -70.73705 | 11240 ft | 308 kts | 230° |
| 2026-05-05 15:23 | -32.86745 | -70.75429 | 10911 ft | 306 kts | 226° |
| 2026-05-05 15:23 | -32.88309 | -70.77150 | 10614 ft | 304 kts | 228° |
| 2026-05-05 15:23 | -32.89844 | -70.78866 | 10233 ft | 304 kts | 227° |
| 2026-05-05 15:23 | -32.91564 | -70.80340 | 9878 ft | 309 kts | 212° |
| 2026-05-05 15:24 | -32.93563 | -70.81301 | 9483 ft | 311 kts | 198° |
| 2026-05-05 15:24 | -32.95678 | -70.81720 | 9089 ft | 311 kts | 188° |
| 2026-05-05 15:24 | -32.97829 | -70.82021 | 8750 ft | 308 kts | 189° |
| 2026-05-05 15:24 | -32.99940 | -70.82352 | 8403 ft | 305 kts | 188° |
| 2026-05-05 15:25 | -33.02053 | -70.82350 | 8022 ft | 304 kts | 176° |
| 2026-05-05 15:25 | -33.04156 | -70.82183 | 7707 ft | 302 kts | 178° |
| 2026-05-05 15:25 | -33.06261 | -70.82113 | 7378 ft | 299 kts | 179° |
| 2026-05-05 15:25 | -33.08327 | -70.82015 | 7063 ft | 296 kts | 178° |
| 2026-05-05 15:26 | -33.10346 | -70.81873 | 6778 ft | 292 kts | 177° |
| 2026-05-05 15:26 | -33.12381 | -70.81763 | 6492 ft | 289 kts | 179° |
| 2026-05-05 15:26 | -33.14388 | -70.81723 | 5753 ft | 290 kts | 182° |
| 2026-05-05 15:26 | -33.16362 | -70.81769 | 5506 ft | 268 kts | 175° |
| 2026-05-05 15:27 | -33.18113 | -70.81439 | 5222 ft | 248 kts | 173° |
| 2026-05-05 15:27 | -33.19783 | -70.81289 | 4919 ft | 233 kts | 179° |
| 2026-05-05 15:27 | -33.21371 | -70.81246 | 4619 ft | 224 kts | 178° |
| 2026-05-05 15:27 | -33.22839 | -70.81157 | 4340 ft | 200 kts | 177° |
| 2026-05-05 15:28 | -33.24212 | -70.81066 | 4077 ft | 186 kts | 178° |
| 2026-05-05 15:28 | -33.25436 | -70.81003 | 3847 ft | 171 kts | 179° |
| 2026-05-05 15:28 | -33.26562 | -70.80942 | 3635 ft | 151 kts | 178° |
| 2026-05-05 15:28 | -33.27576 | -70.80889 | 3446 ft | 148 kts | 179° |
| 2026-05-05 15:29 | -33.28594 | -70.80833 | 3262 ft | 141 kts | 179° |
| 2026-05-05 15:29 | -33.29543 | -70.80787 | 3082 ft | 137 kts | 179° |
| 2026-05-05 15:29 | -33.30530 | -70.80725 | 2886 ft | 144 kts | 179° |
| 2026-05-05 15:29 | -33.31481 | -70.80683 | 2704 ft | 129 kts | 179° |
| 2026-05-05 15:30 | -33.32354 | -70.80632 | 2518 ft | 122 kts | 179° |
| 2026-05-05 15:30 | -33.33133 | -70.80594 | 2378 ft | 100 kts | 178° |
| 2026-05-05 15:30 | -33.33816 | -70.80552 | 2243 ft | 97 kts | 179° |
| 2026-05-05 15:30 | -33.34489 | -70.80515 | 2128 ft | 99 kts | 178° |
| 2026-05-05 15:31 | -33.35208 | -70.80478 | 1989 ft | 105 kts | 179° |
| 2026-05-05 15:31 | -33.35925 | -70.80447 | 1855 ft | 100 kts | 178° |
| 2026-05-05 15:31 | -33.36595 | -70.80403 | 1727 ft | 94 kts | 178° |
| 2026-05-05 15:31 | -33.37238 | -70.80372 | 1603 ft | 92 kts | 178° |
| 2026-05-05 15:32 | -33.37837 | -70.80341 | 1568 ft | 77 kts | 178° |
| 2026-05-05 15:32 | -33.38313 | -70.80312 | 1568 ft | 60 kts | 177° |
| 2026-05-05 15:32 | -33.38700 | -70.80293 | 1569 ft | 53 kts | 178° |
| 2026-05-05 15:32 | -33.39065 | -70.80272 | 1568 ft | 52 kts | 177° |
| 2026-05-05 15:33 | -33.39330 | -70.80197 | 1566 ft | 21 kts | 150° |
| 2026-05-05 15:33 | -33.39444 | -70.80110 | 1562 ft | 13 kts | 151° |
| 2026-05-05 15:33 | -33.39519 | -70.80017 | 1560 ft | 18 kts | 115° |
| 2026-05-05 15:33 | -33.39525 | -70.79855 | 1560 ft | 21 kts | 88° |
| 2026-05-05 15:34 | -33.39519 | -70.79665 | 1559 ft | 24 kts | 88° |
| 2026-05-05 15:34 | -33.39509 | -70.79467 | 1559 ft | 24 kts | 88° |
| 2026-05-05 15:34 | -33.39502 | -70.79260 | 1559 ft | 26 kts | 88° |
| 2026-05-05 15:34 | -33.39467 | -70.79137 | 1559 ft | 15 kts | 11° |
| 2026-05-05 15:35 | -33.39348 | -70.79143 | 1559 ft | 19 kts | 358° |
| 2026-05-05 15:35 | -33.39227 | -70.79144 | 1559 ft | 8 kts | 356° |
| 2026-05-05 15:35 | -33.39213 | -70.79172 | 1559 ft | 8 kts | 266° |
| 2026-05-05 15:35 | -33.39212 | -70.79204 | 1559 ft | 2 kts | 87° |
| 2026-05-05 15:36 | -33.39212 | -70.79203 | 1559 ft | 0 kts | 88° |